Time;durP1;ratioP1;P1;durP2;ratioP2;P2;SDS_P1;SDS_P2;PMS_P1;PMS_P2;Temp;Humidity;BMP_temperature;BMP_pressure;BME280_temperature;BME280_humidity;BME280_pressure;Samples;Min_cycle;Max_cycle;Signal;HPM_P1;HPM_P2
2021/03/21 00:00:25;;;;;;;6.30;4.40;;;;;;;6.48;77.40;102464.31;4969342;28;20506;-77
2021/03/21 00:02:52;;;;;;;7.68;4.50;;;;;;;6.50;77.51;102465.09;4974809;28;20058;-77
2021/03/21 00:05:18;;;;;;;7.88;5.28;;;;;;;6.55;77.65;102478.72;4976517;28;20046;-77
2021/03/21 00:07:44;;;;;;;6.90;5.07;;;;;;;6.55;77.95;102473.53;4978021;28;20144;-77
2021/03/21 00:10:11;;;;;;;7.93;4.97;;;;;;;6.58;77.65;102478.56;4979212;28;20811;-77
2021/03/21 00:12:37;;;;;;;10.40;6.05;;;;;;;6.45;78.17;102457.50;4983062;28;20477;-77
2021/03/21 00:15:06;;;;;;;11.95;5.72;;;;;;;6.34;78.39;102460.66;4976705;28;20248;-77
2021/03/21 00:17:32;;;;;;;8.18;5.70;;;;;;;6.36;78.41;102457.16;4983887;28;20055;-77
2021/03/21 00:19:58;;;;;;;9.13;5.60;;;;;;;6.32;78.40;102448.63;4978031;28;20565;-77
2021/03/21 00:22:24;;;;;;;13.30;6.50;;;;;;;6.30;78.67;102458.28;4982148;28;20070;-76
2021/03/21 00:24:50;;;;;;;9.93;6.63;;;;;;;6.23;78.74;102447.31;4979465;28;20124;-76
2021/03/21 00:27:16;;;;;;;11.57;7.15;;;;;;;6.22;79.03;102447.44;4983668;28;20165;-77
2021/03/21 00:29:43;;;;;;;10.43;7.78;;;;;;;6.27;79.92;102451.50;4977170;28;20166;-77
2021/03/21 00:32:09;;;;;;;9.40;6.03;;;;;;;6.30;79.31;102460.91;4982280;28;20569;-77
2021/03/21 00:34:35;;;;;;;10.48;6.68;;;;;;;6.20;79.31;102452.72;4980012;28;20054;-77
2021/03/21 00:37:02;;;;;;;12.07;8.05;;;;;;;6.19;79.69;102463.19;4987744;28;20403;-77
2021/03/21 00:39:28;;;;;;;12.98;7.85;;;;;;;6.24;79.71;102453.41;4985870;28;20495;-77
2021/03/21 00:41:53;;;;;;;9.48;7.15;;;;;;;6.26;79.16;102449.78;4964564;28;20069;-77
2021/03/21 00:44:19;;;;;;;9.23;5.68;;;;;;;6.17;79.29;102445.03;4975462;28;20402;-77
2021/03/21 00:46:45;;;;;;;10.77;6.82;;;;;;;6.14;79.37;102435.63;4970911;28;20049;-77
2021/03/21 00:49:11;;;;;;;10.35;6.22;;;;;;;6.09;79.38;102423.75;4988150;28;20514;-77
2021/03/21 00:51:38;;;;;;;9.45;6.47;;;;;;;6.04;79.65;102424.00;4988056;28;20046;-77
2021/03/21 00:54:04;;;;;;;11.73;6.50;;;;;;;6.12;79.37;102423.59;4978861;28;20117;-77
2021/03/21 00:56:35;;;;;;;9.57;6.93;;;;;;;6.18;79.36;102409.41;4980907;28;20082;-77
2021/03/21 00:59:02;;;;;;;12.60;6.32;;;;;;;6.08;78.97;102393.41;4979909;28;20145;-76
2021/03/21 01:01:30;;;;;;;7.38;4.93;;;;;;;6.18;79.28;102406.81;4987101;28;20516;-76
2021/03/21 01:03:57;;;;;;;10.40;5.15;;;;;;;6.17;78.66;102402.50;4973971;28;20470;-76
2021/03/21 01:06:24;;;;;;;7.38;4.97;;;;;;;6.17;79.22;102395.53;4983725;28;20046;-77
2021/03/21 01:08:59;;;;;;;7.78;4.45;;;;;;;6.18;79.00;102399.00;4977414;28;20042;-77
2021/03/21 01:11:29;;;;;;;7.28;4.00;;;;;;;6.08;78.49;102404.66;4980738;28;20460;-77
2021/03/21 01:13:56;;;;;;;5.13;3.80;;;;;;;6.16;78.54;102391.25;4984401;28;20161;-77
2021/03/21 01:16:26;;;;;;;6.45;3.33;;;;;;;6.17;78.44;102381.66;4985378;28;20046;-77
2021/03/21 01:18:54;;;;;;;6.97;3.08;;;;;;;6.19;78.91;102383.25;4994987;28;20046;-77
2021/03/21 01:21:24;;;;;;;6.00;2.78;;;;;;;6.19;78.24;102385.03;4986951;28;20097;-77
2021/03/21 01:23:50;;;;;;;5.53;2.83;;;;;;;6.20;78.40;102387.56;4987499;28;20109;-77
2021/03/21 01:26:21;;;;;;;4.18;2.72;;;;;;;6.14;78.53;102387.88;4986512;28;20061;-77
2021/03/21 01:28:47;;;;;;;5.35;2.70;;;;;;;6.17;78.41;102382.50;4990039;28;20077;-77
2021/03/21 01:31:17;;;;;;;8.00;2.90;;;;;;;6.16;79.10;102380.84;4983946;28;20058;-76
2021/03/21 01:33:44;;;;;;;5.80;2.30;;;;;;;6.13;79.02;102375.75;4983604;28;20058;-77
2021/03/21 01:36:19;;;;;;;3.65;2.15;;;;;;;6.17;78.68;102371.25;4975427;28;20086;-77
2021/03/21 01:38:45;;;;;;;3.80;2.50;;;;;;;6.14;79.14;102362.66;4984495;28;20109;-77
2021/03/21 01:41:22;;;;;;;4.03;2.35;;;;;;;6.10;79.11;102366.34;4986661;28;20150;-77
2021/03/21 01:43:48;;;;;;;4.30;2.15;;;;;;;6.11;78.57;102360.22;4973291;28;20085;-77
2021/03/21 01:46:49;;;;;;;3.10;2.10;;;;;;;6.11;78.85;102360.22;4988526;28;20085;-78
2021/03/21 01:49:21;;;;;;;4.03;2.53;;;;;;;6.06;78.72;102359.63;4964110;28;20494;-76
2021/03/21 01:51:50;;;;;;;3.25;2.10;;;;;;;6.12;78.60;102358.47;4964428;28;20090;-76
2021/03/21 01:54:17;;;;;;;;;;;;;;;6.13;78.93;102353.19;4964957;28;20141;-76
2021/03/21 01:56:45;;;;;;;2.72;2.03;;;;;;;6.10;78.33;102355.94;4991678;28;19929;-76
2021/03/21 01:59:26;;;;;;;8.05;2.20;;;;;;;6.09;79.22;102349.03;4965338;28;20875;-76
2021/03/21 02:01:54;;;;;;;3.33;2.00;;;;;;;6.08;79.33;102349.13;4985306;28;20082;-76
2021/03/21 02:04:21;;;;;;;4.50;2.25;;;;;;;6.06;79.09;102343.16;4973889;28;20590;-76
2021/03/21 02:07:21;;;;;;;3.03;2.17;;;;;;;6.06;79.74;102335.34;4982956;28;20058;-77
2021/03/21 02:10:12;;;;;;;4.95;1.85;;;;;;;6.07;79.31;102326.59;4960423;28;20101;-76
2021/03/21 02:12:49;;;;;;;2.80;2.20;;;;;;;6.03;79.25;102322.47;4982403;28;20058;-76
2021/03/21 02:15:33;;;;;;;5.35;2.60;;;;;;;5.96;79.79;102310.66;4969159;28;20050;-76
2021/03/21 02:18:23;;;;;;;4.15;2.42;;;;;;;5.99;79.37;102319.16;4978401;28;20057;-76
2021/03/21 02:21:08;;;;;;;3.45;2.60;;;;;;;5.93;80.13;102317.69;4976422;28;20124;-76
2021/03/21 02:23:34;;;;;;;4.15;2.55;;;;;;;5.98;79.99;102314.03;4992735;28;20533;-76
2021/03/21 02:26:19;;;;;;;4.25;2.50;;;;;;;5.97;79.55;102308.00;4991002;28;20459;-76
2021/03/21 02:29:19;;;;;;;4.93;3.05;;;;;;;5.98;79.67;102291.47;4980985;28;20082;-76
2021/03/21 02:31:52;;;;;;;5.72;3.10;;;;;;;6.06;79.27;102286.69;4976873;28;20879;-76
2021/03/21 02:34:46;;;;;;;3.80;2.80;;;;;;;6.01;79.40;102280.84;4981993;28;20050;-77
2021/03/21 02:37:41;;;;;;;4.78;3.13;;;;;;;6.03;79.15;102296.41;4981508;28;20474;-77
2021/03/21 02:40:12;;;;;;;3.88;3.20;;;;;;;5.95;79.58;102278.59;4985309;28;20089;-78
2021/03/21 02:42:43;;;;;;;6.43;3.53;;;;;;;5.87;79.60;102273.75;4972495;28;20062;-76
2021/03/21 02:45:12;;;;;;;4.38;3.38;;;;;;;5.94;79.52;102282.09;4966769;28;20051;-76
2021/03/21 02:47:40;;;;;;;4.45;3.60;;;;;;;5.94;79.80;102269.91;4961866;28;20074;-76
2021/03/21 02:50:24;;;;;;;5.03;3.25;;;;;;;6.00;79.67;102279.19;4974081;28;20149;-77
2021/03/21 02:52:56;;;;;;;5.15;3.53;;;;;;;5.97;79.65;102265.47;4984794;28;20514;-78
2021/03/21 02:55:35;;;;;;;4.00;3.22;;;;;;;5.96;79.69;102263.78;4978824;28;20703;-78
2021/03/21 02:58:03;;;;;;;;;;;;;;;5.91;79.54;102262.22;4981959;28;20858;-77
2021/03/21 03:00:35;;;;;;;6.70;3.97;;;;;;;5.95;79.78;102265.56;4977384;28;19980;-78
2021/03/21 03:03:07;;;;;;;5.20;3.65;;;;;;;5.97;80.10;102274.13;4985292;28;20141;-78
2021/03/21 03:05:39;;;;;;;5.03;4.03;;;;;;;5.96;79.86;102276.81;4978772;28;20164;-77
2021/03/21 03:08:11;;;;;;;8.45;5.10;;;;;;;5.97;79.69;102273.28;4983511;28;20077;-78
2021/03/21 03:11:11;;;;;;;6.18;4.78;;;;;;;5.99;80.22;102274.06;4981197;28;20453;-77
2021/03/21 03:13:43;;;;;;;5.72;4.43;;;;;;;6.01;80.28;102274.81;4970665;28;20054;-78
2021/03/21 03:16:17;;;;;;;7.68;5.03;;;;;;;6.02;80.79;102274.75;5000057;28;20055;-77
2021/03/21 03:18:49;;;;;;;11.32;5.80;;;;;;;6.07;80.21;102274.47;4985135;28;20077;-78
2021/03/21 03:21:27;;;;;;;8.73;5.88;;;;;;;6.09;80.33;102272.63;4987055;28;20426;-78
2021/03/21 03:24:09;;;;;;;10.35;5.95;;;;;;;6.06;80.65;102284.06;4980767;28;20054;-78
2021/03/21 03:27:01;;;;;;;9.52;6.38;;;;;;;6.08;80.99;102282.22;4981113;28;20457;-78
2021/03/21 03:29:52;;;;;;;9.95;6.60;;;;;;;6.14;80.44;102274.09;4992742;28;20054;-78
2021/03/21 03:32:19;;;;;;;13.02;7.80;;;;;;;6.09;80.94;102270.03;4972362;28;20058;-78
2021/03/21 03:34:51;;;;;;;10.48;7.05;;;;;;;6.16;80.99;102270.56;4977749;28;20076;-78
2021/03/21 03:37:17;;;;;;;9.35;7.00;;;;;;;6.14;81.03;102270.63;4984305;28;20453;-78
2021/03/21 03:39:43;;;;;;;10.98;7.30;;;;;;;6.12;80.85;102277.69;4979121;28;20131;-78
2021/03/21 03:42:26;;;;;;;10.35;7.05;;;;;;;6.10;80.73;102284.75;4996373;28;20577;-78
2021/03/21 03:45:07;;;;;;;10.23;7.05;;;;;;;6.11;81.16;102282.03;4968762;28;20059;-78
2021/03/21 03:47:50;;;;;;;10.60;7.22;;;;;;;6.13;81.30;102282.84;4968594;28;20694;-78
2021/03/21 03:50:49;;;;;;;11.82;7.22;;;;;;;6.14;80.95;102284.50;4979551;28;20132;-78
2021/03/21 03:53:53;;;;;;;8.70;7.05;;;;;;;6.15;81.24;102285.34;4981105;28;20114;-78
2021/03/21 03:56:28;;;;;;;10.90;7.40;;;;;;;6.14;80.86;102275.84;4980883;28;20120;-78
2021/03/21 03:59:11;;;;;;;13.63;8.18;;;;;;;6.18;80.99;102276.53;4985360;28;20062;-78
2021/03/21 04:01:48;;;;;;;12.63;8.18;;;;;;;6.20;81.24;102278.13;4982448;28;20141;-78
2021/03/21 04:04:17;;;;;;;11.85;7.85;;;;;;;6.20;81.44;102283.34;4999517;28;21297;-78
2021/03/21 04:06:58;;;;;;;10.88;8.00;;;;;;;6.17;81.58;102282.66;4969892;28;20133;-78
2021/03/21 04:09:49;;;;;;;13.05;8.90;;;;;;;6.18;81.33;102276.53;4972854;28;20169;-78
2021/03/21 04:12:23;;;;;;;12.05;8.38;;;;;;;6.23;81.39;102277.09;4982663;28;20074;-78
2021/03/21 04:15:06;;;;;;;11.93;7.78;;;;;;;6.24;81.01;102278.81;4996794;28;20101;-78
2021/03/21 04:17:50;;;;;;;12.18;7.93;;;;;;;6.27;80.76;102279.50;4982435;28;20058;-78
2021/03/21 04:20:16;;;;;;;13.63;8.30;;;;;;;6.31;81.40;102272.31;4992468;28;20586;-78
2021/03/21 04:23:00;;;;;;;15.10;8.52;;;;;;;6.44;80.50;102270.72;4984925;28;20058;-77
2021/03/21 04:25:33;;;;;;;12.55;8.50;;;;;;;6.39;80.42;102274.50;4988575;28;20081;-77
2021/03/21 04:28:08;;;;;;;12.18;7.97;;;;;;;6.42;80.57;102267.38;4989432;28;20174;-77
2021/03/21 04:30:39;;;;;;;12.23;8.05;;;;;;;6.45;80.33;102269.81;4983256;28;20058;-77
2021/03/21 04:33:10;;;;;;;11.60;8.35;;;;;;;6.48;80.43;102268.81;4983800;28;20058;-76
2021/03/21 04:35:44;;;;;;;13.18;8.98;;;;;;;-145.50;100.00;65435.88;4976531;28;20053;-76
2021/03/21 04:38:18;;;;;;;11.90;8.15;;;;;;;-145.50;100.00;65435.88;4987017;28;20059;-76
2021/03/21 04:40:45;;;;;;;13.88;8.70;;;;;;;6.46;79.76;102279.31;4979873;28;20054;-76
2021/03/21 04:43:21;;;;;;;13.30;9.05;;;;;;;6.43;80.34;102274.28;4970706;28;20083;-76
2021/03/21 04:45:52;;;;;;;15.23;8.77;;;;;;;6.43;80.29;102276.88;4959059;28;20090;-76
2021/03/21 04:48:22;;;;;;;15.63;9.32;;;;;;;6.40;80.12;102279.66;4979343;28;20054;-78
2021/03/21 04:50:53;;;;;;;11.82;7.18;;;;;;;6.43;79.96;102273.41;4989766;28;20140;-78
2021/03/21 04:53:44;;;;;;;12.63;8.15;;;;;;;6.43;79.97;102269.06;4982815;28;20078;-77
2021/03/21 04:56:26;;;;;;;12.30;8.25;;;;;;;6.48;79.86;102267.03;4978782;28;20140;-77
2021/03/21 04:58:57;;;;;;;16.42;8.93;;;;;;;6.54;80.06;102271.06;4986757;28;20141;-76
2021/03/21 05:01:31;;;;;;;14.40;8.70;;;;;;;6.49;79.81;102267.91;4989972;28;20713;-78
2021/03/21 05:04:05;;;;;;;15.95;9.13;;;;;;;6.54;79.23;102263.25;4985248;28;20058;-78
2021/03/21 05:06:50;;;;;;;15.25;8.77;;;;;;;6.54;79.76;102258.03;4992735;28;20051;-78
2021/03/21 05:09:28;;;;;;;14.95;8.30;;;;;;;6.54;79.50;102251.03;4987758;28;20085;-78
2021/03/21 05:12:01;;;;;;;12.98;7.90;;;;;;;6.58;79.15;102241.28;4984415;28;20058;-78
2021/03/21 05:14:30;;;;;;;13.15;7.70;;;;;;;6.60;79.26;102254.25;4978373;28;20118;-78
2021/03/21 05:17:05;;;;;;;;;;;;;;;6.61;79.80;102255.94;4987792;28;20601;-78
2021/03/21 05:19:45;;;;;;;15.13;7.47;;;;;;;6.57;78.99;102244.84;4984456;28;19925;-78
2021/03/21 05:22:33;;;;;;;15.93;8.15;;;;;;;6.56;78.76;102242.31;4989318;28;20093;-77
2021/03/21 05:25:11;;;;;;;14.10;7.82;;;;;;;6.56;79.32;102239.72;4977138;28;20207;-76
2021/03/21 05:27:47;;;;;;;14.05;7.53;;;;;;;6.55;78.88;102238.88;4970690;28;20108;-77
2021/03/21 05:30:21;;;;;;;15.25;7.53;;;;;;;6.57;79.34;102254.44;4979564;28;20054;-77
2021/03/21 05:32:50;;;;;;;17.52;8.20;;;;;;;6.56;78.85;102258.78;4985376;28;20105;-77
2021/03/21 05:35:26;;;;;;;18.42;9.80;;;;;;;6.57;78.21;102251.84;4978651;28;20050;-77
2021/03/21 05:38:16;;;;;;;16.58;6.78;;;;;;;6.54;78.16;102261.47;4978050;28;20054;-77
2021/03/21 05:41:11;;;;;;;13.88;6.47;;;;;;;6.49;78.22;102260.91;4976384;28;20054;-77
2021/03/21 05:43:50;;;;;;;12.98;6.53;;;;;;;6.52;78.06;102263.31;4961582;28;20162;-77
2021/03/21 05:46:42;;;;;;;13.07;5.47;;;;;;;6.49;77.81;102270.50;4961395;28;20196;-77
2021/03/21 05:49:20;;;;;;;11.43;5.93;;;;;;;6.52;78.19;102281.56;4973084;28;20065;-77
2021/03/21 05:52:27;;;;;;;10.52;4.80;;;;;;;6.52;77.10;102281.56;4963686;28;20187;-77
2021/03/21 05:55:03;;;;;;;12.05;5.22;;;;;;;6.56;77.42;102271.00;4976680;28;20872;-77
2021/03/21 05:57:54;;;;;;;13.20;5.70;;;;;;;6.61;76.93;102268.97;4974036;28;20078;-77
2021/03/21 06:00:32;;;;;;;9.88;3.63;;;;;;;6.53;76.53;102278.06;4983302;28;20054;-77
2021/03/21 06:03:39;;;;;;;9.43;4.15;;;;;;;6.60;76.38;102275.09;4980145;28;20059;-77
2021/03/21 06:06:40;;;;;;;7.97;3.15;;;;;;;6.51;76.11;102272.09;4975860;28;20105;-77
2021/03/21 06:09:29;;;;;;;6.00;2.45;;;;;;;6.59;75.81;102286.47;4975940;28;20050;-77
2021/03/21 06:12:04;;;;;;;9.57;2.20;;;;;;;6.62;75.63;102273.25;4986999;28;20089;-77
2021/03/21 06:14:49;;;;;;;9.93;2.38;;;;;;;6.57;75.80;102277.91;4996073;28;20081;-76
2021/03/21 06:17:52;;;;;;;15.55;2.53;;;;;;;6.62;75.52;102283.69;4984774;28;20054;-76
2021/03/21 06:20:36;;;;;;;12.02;2.03;;;;;;;6.67;75.76;102292.09;4976994;28;20058;-77
2021/03/21 06:23:47;;;;;;;8.40;2.10;;;;;;;6.72;75.57;102298.75;4982768;28;20414;-77
2021/03/21 06:26:46;;;;;;;9.43;1.90;;;;;;;6.72;76.37;102293.53;4979980;28;20061;-77
2021/03/21 06:29:35;;;;;;;6.55;1.67;;;;;;;6.73;75.95;102295.22;4965782;28;20121;-77
2021/03/21 06:32:50;;;;;;;12.73;2.30;;;;;;;6.71;76.13;102306.66;4978315;28;20529;-77
2021/03/21 06:35:43;;;;;;;11.30;2.05;;;;;;;6.69;75.72;102311.94;4977147;28;20108;-77
2021/03/21 06:38:32;;;;;;;7.93;1.75;;;;;;;6.67;76.57;102303.38;4969614;28;20483;-77
2021/03/21 06:41:14;;;;;;;13.02;1.63;;;;;;;6.73;76.46;102313.47;4965773;28;20840;-77
2021/03/21 06:43:49;;;;;;;5.07;1.40;;;;;;;6.74;76.14;102319.50;4977091;28;20141;-77
2021/03/21 06:46:52;;;;;;;9.93;1.80;;;;;;;6.71;76.70;102312.69;4984522;28;20117;-77
2021/03/21 06:49:44;;;;;;;7.80;1.60;;;;;;;6.78;76.92;102318.41;4965558;28;20055;-77
2021/03/21 06:52:36;;;;;;;7.65;1.38;;;;;;;6.79;76.76;102324.50;4982022;28;20109;-77
2021/03/21 06:55:11;;;;;;;8.60;1.63;;;;;;;6.77;76.70;102327.19;4970954;28;20829;-77
2021/03/21 06:58:14;;;;;;;8.75;1.55;;;;;;;6.76;76.90;102322.03;4973407;28;20061;-77
2021/03/21 07:00:52;;;;;;;12.57;1.58;;;;;;;6.71;77.16;102328.34;4978973;28;20077;-77
2021/03/21 07:07:37;;;;;;;7.07;1.13;;;;;;;6.65;76.54;102320.88;4979351;28;20085;-77
2021/03/21 07:10:24;;;;;;;12.60;2.13;;;;;;;6.67;76.66;102329.44;4977433;28;20406;-76
2021/03/21 07:13:09;;;;;;;9.02;1.40;;;;;;;6.68;77.26;102314.63;4986099;28;20073;-76
2021/03/21 07:15:58;;;;;;;7.22;1.05;;;;;;;6.77;76.89;102326.34;4973324;28;20080;-77
2021/03/21 07:18:56;;;;;;;12.77;1.60;;;;;;;6.77;76.42;102321.97;4980138;28;20892;-77
2021/03/21 07:21:47;;;;;;;8.10;1.45;;;;;;;6.85;75.64;102317.16;4993330;28;20546;-77
2021/03/21 07:24:50;;;;;;;8.40;1.42;;;;;;;6.89;75.17;102325.66;4982911;28;20054;-77
2021/03/21 07:27:48;;;;;;;8.65;1.40;;;;;;;6.94;75.01;102331.47;4983981;28;20502;-76
2021/03/21 07:30:35;;;;;;;4.20;1.20;;;;;;;7.00;74.72;102323.28;4973804;28;20141;-77
2021/03/21 07:33:19;;;;;;;9.93;1.90;;;;;;;6.93;72.96;102317.56;4973936;28;20324;-77
2021/03/21 07:35:54;;;;;;;6.70;1.45;;;;;;;6.98;73.73;102326.91;4983483;28;20160;-77
2021/03/21 07:38:43;;;;;;;11.77;1.67;;;;;;;6.98;73.62;102334.72;4985490;28;20061;-77
2021/03/21 07:41:37;;;;;;;7.38;1.30;;;;;;;7.05;73.70;102333.47;4980683;28;20472;-77
2021/03/21 07:44:20;;;;;;;6.00;1.10;;;;;;;7.15;74.38;102333.78;4965780;28;20058;-77
2021/03/21 07:47:15;;;;;;;8.80;1.15;;;;;;;7.22;73.22;102337.75;4975871;28;20129;-77
2021/03/21 07:50:02;;;;;;;8.77;1.25;;;;;;;7.28;73.00;102330.38;4973289;28;20545;-76
2021/03/21 07:52:55;;;;;;;6.70;1.40;;;;;;;7.35;71.91;102333.50;4981984;28;20105;-76
2021/03/21 07:55:26;;;;;;;7.97;1.60;;;;;;;7.34;72.35;102318.75;4974033;28;20155;-76
2021/03/21 07:58:25;;;;;;;7.30;1.27;;;;;;;7.38;70.61;102319.41;4977014;28;20133;-76
2021/03/21 08:00:52;;;;;;;7.63;1.55;;;;;;;7.44;71.20;102316.44;4971862;28;20133;-76
2021/03/21 08:03:30;;;;;;;9.55;1.30;;;;;;;7.38;68.58;102306.38;4982612;28;20050;-76
2021/03/21 08:05:59;;;;;;;14.90;1.67;;;;;;;7.36;69.54;102298.63;4976730;28;20054;-76
2021/03/21 08:08:26;;;;;;;;;;;;;;;7.45;69.60;102307.69;4980435;28;20826;-76
2021/03/21 08:10:57;;;;;;;10.05;1.65;;;;;;;7.53;69.68;102297.66;4973702;28;20027;-76
2021/03/21 08:13:33;;;;;;;12.50;2.00;;;;;;;7.45;68.83;102295.47;4977482;28;20050;-76
2021/03/21 08:16:00;;;;;;;12.98;2.03;;;;;;;7.33;67.76;102299.66;4976717;28;20054;-76
2021/03/21 08:18:33;;;;;;;15.23;1.80;;;;;;;7.37;68.40;102302.06;4978425;28;20076;-76
2021/03/21 08:21:05;;;;;;;13.88;1.85;;;;;;;7.33;68.43;102302.25;4980794;28;20134;-77
2021/03/21 08:23:36;;;;;;;11.75;1.77;;;;;;;7.42;68.44;102316.53;4976871;28;20145;-77
2021/03/21 08:26:06;;;;;;;9.27;1.73;;;;;;;7.41;68.10;102311.41;4980273;28;20078;-77
2021/03/21 08:28:37;;;;;;;11.80;2.05;;;;;;;7.50;68.34;102324.75;4971445;28;20050;-77
2021/03/21 08:31:10;;;;;;;11.40;1.70;;;;;;;7.59;68.24;102333.84;4981215;28;20484;-78
2021/03/21 08:33:42;;;;;;;13.20;2.08;;;;;;;7.58;67.29;102332.16;4975529;28;20057;-75
2021/03/21 08:36:15;;;;;;;18.15;2.63;;;;;;;7.58;67.44;102337.38;4982948;28;20047;-78
2021/03/21 08:38:54;;;;;;;15.93;2.63;;;;;;;7.64;67.65;102344.00;4976086;28;20061;-75
2021/03/21 08:41:21;;;;;;;14.18;2.17;;;;;;;7.66;67.91;102348.22;4976237;28;20540;-77
2021/03/21 08:43:57;;;;;;;16.95;2.58;;;;;;;7.72;67.13;102358.31;4978789;28;20108;-76
2021/03/21 08:46:24;;;;;;;18.08;2.88;;;;;;;7.69;66.33;102365.47;4982589;28;20125;-76
2021/03/21 08:49:21;;;;;;;21.70;2.97;;;;;;;7.75;66.86;102359.06;4982892;28;20082;-76
2021/03/21 08:51:47;;;;;;;25.85;3.25;;;;;;;7.81;67.68;102371.75;4980827;28;20058;-76
2021/03/21 08:54:23;;;;;;;26.83;3.25;;;;;;;7.80;65.56;102368.31;4979335;28;20109;-76
2021/03/21 08:56:57;;;;;;;20.15;2.40;;;;;;;7.76;65.65;102376.41;4973761;28;20085;-76
2021/03/21 08:59:30;;;;;;;23.77;3.38;;;;;;;7.77;65.56;102365.03;4984183;28;20414;-76
2021/03/21 09:02:04;;;;;;;20.50;2.50;;;;;;;7.73;64.25;102364.38;4977779;28;20054;-76
2021/03/21 09:04:32;;;;;;;26.13;3.35;;;;;;;7.78;64.65;102366.69;4971516;28;20054;-77
2021/03/21 09:07:13;;;;;;;15.48;3.40;;;;;;;7.73;64.48;102369.59;4980327;28;20070;-75
2021/03/21 09:09:39;;;;;;;20.80;3.30;;;;;;;7.73;64.63;102366.97;4979219;28;20062;-76
2021/03/21 09:12:24;;;;;;;26.17;3.72;;;;;;;7.70;64.40;102378.47;4977933;28;20070;-76
2021/03/21 09:15:13;;;;;;;25.85;2.92;;;;;;;7.71;64.02;102379.28;4985292;28;20069;-76
2021/03/21 09:17:39;;;;;;;26.73;3.42;;;;;;;7.76;64.48;102392.91;5010306;28;20054;-77
2021/03/21 09:20:07;;;;;;;26.17;3.60;;;;;;;7.78;63.66;102387.59;4986376;28;20050;-77
2021/03/21 09:22:38;;;;;;;22.73;4.90;;;;;;;7.86;62.42;102378.41;4982941;28;20058;-76
2021/03/21 09:25:19;;;;;;;25.10;3.15;;;;;;;7.86;63.08;102386.25;4974661;28;20054;-76
2021/03/21 09:27:45;;;;;;;24.30;4.15;;;;;;;7.93;62.28;102387.53;4984491;28;20054;-76
2021/03/21 09:30:40;;;;;;;24.17;3.47;;;;;;;7.94;60.51;102393.63;4982728;28;20141;-76
2021/03/21 09:33:14;;;;;;;26.30;3.92;;;;;;;8.06;62.11;102395.50;4983951;28;20050;-75
2021/03/21 09:35:59;;;;;;;20.35;3.40;;;;;;;8.09;61.61;102386.63;4974571;28;20062;-75
2021/03/21 09:38:28;;;;;;;23.58;4.25;;;;;;;8.12;60.80;102383.84;4981649;28;20090;-76
2021/03/21 09:41:02;;;;;;;25.02;4.30;;;;;;;8.17;60.71;102387.00;4978400;28;20086;-76
2021/03/21 09:43:34;;;;;;;22.52;3.55;;;;;;;8.14;59.54;102395.03;4980027;28;20137;-76
2021/03/21 09:46:06;;;;;;;24.80;4.18;;;;;;;8.16;59.70;102390.56;4978390;28;20148;-76
2021/03/21 09:48:49;;;;;;;19.90;3.78;;;;;;;8.27;59.49;102401.22;4984027;28;20501;-76
2021/03/21 09:51:30;;;;;;;31.60;3.45;;;;;;;8.20;57.61;102420.81;4974119;28;20056;-77
2021/03/21 09:54:20;;;;;;;26.08;3.28;;;;;;;8.45;59.81;102422.81;4981103;28;20152;-76
2021/03/21 09:56:57;;;;;;;21.95;4.05;;;;;;;8.57;58.93;102423.03;4977770;28;20099;-77
2021/03/21 09:59:37;;;;;;;26.05;3.53;;;;;;;8.72;59.16;102427.28;4984675;28;20680;-77
2021/03/21 10:02:20;;;;;;;21.83;3.92;;;;;;;8.80;58.44;102434.66;4976653;28;20078;-77
2021/03/21 10:05:02;;;;;;;21.65;4.00;;;;;;;8.85;57.79;102437.84;4976654;28;20076;-75
2021/03/21 10:07:39;;;;;;;27.70;3.75;;;;;;;8.66;56.42;102425.91;4977654;28;20142;-75
2021/03/21 10:10:15;;;;;;;23.33;4.13;;;;;;;8.54;55.43;102429.25;4983259;28;20053;-75
2021/03/21 10:12:43;;;;;;;24.80;4.18;;;;;;;8.50;56.75;102417.31;4963435;28;20085;-75
2021/03/21 10:15:16;;;;;;;25.63;3.97;;;;;;;8.64;57.92;102437.38;4995292;28;20162;-75
2021/03/21 10:17:43;;;;;;;27.73;4.47;;;;;;;8.52;56.50;102434.56;4978105;28;20197;-74
2021/03/21 10:20:13;;;;;;;31.60;4.47;;;;;;;8.39;55.74;102435.38;5003328;28;20206;-75
2021/03/21 10:22:39;;;;;;;26.60;3.65;;;;;;;8.55;57.35;102435.34;4983760;28;20142;-76
2021/03/21 10:25:08;;;;;;;29.52;4.32;;;;;;;8.54;56.35;102444.94;4976253;28;20133;-75
2021/03/21 10:27:44;;;;;;;24.85;4.60;;;;;;;8.66;57.64;102444.22;4983613;28;20545;-75
2021/03/21 10:30:14;;;;;;;24.05;3.78;;;;;;;8.68;56.67;102444.97;4986091;28;20132;-75
2021/03/21 10:32:44;;;;;;;25.10;3.40;;;;;;;8.77;57.77;102429.63;4982000;28;20160;-75
2021/03/21 10:35:34;;;;;;;18.63;3.15;;;;;;;8.83;56.12;102421.41;4975656;28;20109;-75
2021/03/21 10:38:05;;;;;;;25.70;4.10;;;;;;;8.98;56.24;102446.63;4983752;28;20054;-74
2021/03/21 10:40:31;;;;;;;22.17;3.50;;;;;;;8.91;54.77;102442.69;4974335;28;20109;-75
2021/03/21 10:43:31;;;;;;;31.95;4.72;;;;;;;8.97;55.01;102447.53;4980344;28;20082;-76
2021/03/21 10:45:57;;;;;;;26.40;3.97;;;;;;;8.94;55.36;102444.25;4970563;28;20105;-74
2021/03/21 10:48:23;;;;;;;26.92;4.90;;;;;;;8.94;55.53;102445.13;4982561;28;20068;-74
2021/03/21 10:50:55;;;;;;;26.70;4.05;;;;;;;8.87;55.10;102436.81;4983414;28;20061;-74
2021/03/21 10:53:25;;;;;;;22.98;3.28;;;;;;;8.88;56.38;102438.50;4977685;28;20142;-75
2021/03/21 10:56:05;;;;;;;23.90;4.35;;;;;;;8.90;57.45;102441.84;4979231;28;20137;-75
2021/03/21 10:58:34;;;;;;;31.90;5.22;;;;;;;8.90;55.75;102420.91;4975712;28;20074;-76
2021/03/21 11:01:33;;;;;;;22.02;4.15;;;;;;;9.04;55.93;102422.66;4984197;28;20081;-75
2021/03/21 11:04:33;;;;;;;20.00;3.47;;;;;;;8.96;55.85;102426.69;4955028;28;20492;-76
2021/03/21 11:07:18;;;;;;;26.20;3.72;;;;;;;8.99;54.91;102426.50;4964809;28;20050;-75
2021/03/21 11:10:00;;;;;;;24.10;3.67;;;;;;;9.14;55.99;102436.00;4973831;28;20053;-75
2021/03/21 11:12:44;;;;;;;21.75;3.97;;;;;;;9.03;55.28;102435.84;4982110;28;20144;-75
2021/03/21 11:15:16;;;;;;;27.67;3.85;;;;;;;9.04;56.11;102427.91;4983531;28;20058;-76
2021/03/21 11:17:42;;;;;;;31.33;4.10;;;;;;;8.98;55.74;102427.47;4982763;28;20054;-74
2021/03/21 11:20:24;;;;;;;22.98;3.28;;;;;;;9.00;55.59;102425.59;4978969;28;20065;-75
2021/03/21 11:22:50;;;;;;;26.98;4.20;;;;;;;9.03;56.60;102418.34;4979655;28;20192;-75
2021/03/21 11:25:30;;;;;;;31.40;4.25;;;;;;;9.06;55.19;102425.19;4973903;28;20089;-74
2021/03/21 11:27:57;;;;;;;28.30;3.88;;;;;;;9.11;55.77;102415.25;4970526;28;20459;-75
2021/03/21 11:30:28;;;;;;;21.38;3.88;;;;;;;9.27;56.64;102405.50;4977207;28;20078;-76
2021/03/21 11:33:24;;;;;;;27.40;4.75;;;;;;;9.24;54.44;102425.78;4983218;28;20621;-75
2021/03/21 11:35:51;;;;;;;25.60;4.03;;;;;;;9.20;53.64;102430.38;4968239;28;20058;-76
2021/03/21 11:38:31;;;;;;;26.85;3.95;;;;;;;9.33;54.48;102432.22;4980618;28;20141;-75
2021/03/21 11:41:00;;;;;;;23.48;3.47;;;;;;;9.42;54.31;102426.38;4971917;28;20510;-75
2021/03/21 11:43:29;;;;;;;17.05;3.28;;;;;;;9.41;53.52;102424.69;4962992;28;20058;-75
2021/03/21 11:46:11;;;;;;;20.85;3.53;;;;;;;9.49;53.24;102422.44;4983623;28;20057;-75
2021/03/21 11:48:40;;;;;;;26.85;3.60;;;;;;;9.44;52.65;102420.09;4974568;28;20050;-74
2021/03/21 11:51:09;;;;;;;27.55;4.30;;;;;;;9.57;54.58;102414.91;4987199;28;20065;-74
2021/03/21 11:53:38;;;;;;;27.63;4.72;;;;;;;9.59;53.46;102426.13;4973243;28;20120;-74
2021/03/21 11:56:15;;;;;;;18.77;3.40;;;;;;;9.58;52.95;102431.47;4982844;28;20074;-74
2021/03/21 11:58:51;;;;;;;25.80;4.30;;;;;;;9.35;52.98;102439.03;4974497;28;20093;-75
2021/03/21 12:01:32;;;;;;;19.95;3.47;;;;;;;9.37;53.73;102431.06;4997801;28;20054;-74
2021/03/21 12:04:01;;;;;;;24.90;4.38;;;;;;;9.36;53.92;102432.84;4973683;28;20616;-74
2021/03/21 12:06:31;;;;;;;;;;;;;;;9.52;54.11;102439.72;4988119;28;20701;-74
2021/03/21 12:09:09;;;;;;;26.25;4.40;;;;;;;9.47;52.81;102445.28;4979472;28;19929;-74
2021/03/21 12:11:39;;;;;;;27.17;3.77;;;;;;;9.45;53.32;102434.88;4979681;28;20238;-75
2021/03/21 12:14:31;;;;;;;26.98;4.72;;;;;;;9.43;53.60;102443.78;4980135;28;20138;-73
2021/03/21 12:16:59;;;;;;;33.53;5.28;;;;;;;9.28;53.63;102432.50;4977251;28;20069;-74
2021/03/21 12:19:40;;;;;;;22.88;3.60;;;;;;;9.31;54.21;102440.19;4977491;28;20699;-73